Terminal Aerodrome Forecast
Issued by NWS

Home | Current Version | Previous Version | Text Only | Print | Product List | Glossary On
Versions: 1 2 3 4 5 6 7 8 9 10 11 12 13 14 15 16
000
FTUS41 KBTV 202320
TAFRUT
TAF
KRUT 202320Z 2100/2124 VRB03KT P6SM SCT070
     FM210200 13004KT P6SM OVC024
     FM211300 VRB03KT P6SM BKN030
     FM212100 VRB02KT P6SM SCT020 OVC040
      AMD LTD TO CLD VIS AND WIND=

USA.gov is the U.S. government's official web portal to all federal, state and local government web resources and services.